createdAt,value
2018-11-04T00:00:54.835Z,9.40
2018-11-04T00:04:00.814Z,9.13
2018-11-04T00:07:06.786Z,9.37
2018-11-04T00:10:12.638Z,9.70
2018-11-04T00:13:18.751Z,9.57
2018-11-04T00:16:24.226Z,9.13
2018-11-04T00:19:29.634Z,9.43
2018-11-04T00:22:35.142Z,9.00
2018-11-04T00:25:40.498Z,8.60
2018-11-04T00:28:45.862Z,8.97
2018-11-04T00:31:51.346Z,9.07
2018-11-04T00:34:56.762Z,9.23
2018-11-04T00:38:02.149Z,8.93
2018-11-04T00:41:07.886Z,9.10
2018-11-04T00:44:13.239Z,9.40
2018-11-04T00:47:18.780Z,9.10
2018-11-04T00:50:24.130Z,8.70
2018-11-04T00:53:29.612Z,9.10
2018-11-04T00:56:35.024Z,8.30
2018-11-04T00:59:40.466Z,8.87
2018-11-04T01:02:47.058Z,8.97
2018-11-04T01:05:52.402Z,8.23
2018-11-04T01:08:57.794Z,8.13
2018-11-04T01:12:03.659Z,7.83
2018-11-04T01:15:11.187Z,7.77
2018-11-04T01:18:16.558Z,8.03
2018-11-04T01:21:21.958Z,8.50
2018-11-04T01:24:27.992Z,7.40
2018-11-04T01:27:33.558Z,8.80
2018-11-04T01:30:39.594Z,7.47
2018-11-04T01:33:44.995Z,7.70
2018-11-04T01:36:50.546Z,8.03
2018-11-04T01:39:55.962Z,8.10
2018-11-04T01:43:01.358Z,7.90
2018-11-04T01:46:06.914Z,7.10
2018-11-04T01:49:12.609Z,7.40
2018-11-04T01:52:18.077Z,6.67
2018-11-04T01:55:23.418Z,6.83
2018-11-04T01:58:28.884Z,8.00
2018-11-04T02:01:34.330Z,7.23
2018-11-04T02:04:39.706Z,6.90
2018-11-04T02:07:45.054Z,12.13
2018-11-04T02:10:50.406Z,65.70
2018-11-04T02:13:55.851Z,7.77
2018-11-04T02:17:01.186Z,7.00
2018-11-04T02:20:08.002Z,6.93
2018-11-04T02:23:13.401Z,7.30
2018-11-04T02:26:18.754Z,7.63
2018-11-04T02:29:24.093Z,7.13
2018-11-04T02:32:29.611Z,7.27
2018-11-04T02:35:35.591Z,7.27
2018-11-04T02:38:41.086Z,7.33
2018-11-04T02:41:46.554Z,7.60
2018-11-04T02:44:51.945Z,7.30
2018-11-04T02:47:57.305Z,6.77
2018-11-04T02:51:02.659Z,7.30
2018-11-04T02:54:08.011Z,7.87
2018-11-04T02:57:13.339Z,7.30
2018-11-04T03:00:18.741Z,7.00
2018-11-04T03:03:24.178Z,7.00
2018-11-04T03:06:29.526Z,7.53
2018-11-04T03:09:34.900Z,6.80
2018-11-04T03:12:40.510Z,7.20
2018-11-04T03:15:45.849Z,7.33
2018-11-04T03:18:51.218Z,6.53
2018-11-04T03:21:56.673Z,7.90
2018-11-04T03:25:02.046Z,6.77
2018-11-04T03:28:09.323Z,7.57
2018-11-04T03:31:14.714Z,7.20
2018-11-04T03:34:20.082Z,6.90
2018-11-04T03:37:25.447Z,7.90
2018-11-04T03:40:30.836Z,7.17
2018-11-04T03:43:36.325Z,7.80
2018-11-04T03:46:41.719Z,7.60
2018-11-04T03:49:47.077Z,7.63
2018-11-04T03:52:52.575Z,7.23
2018-11-04T03:55:57.916Z,7.47
2018-11-04T03:59:03.710Z,7.27
2018-11-04T04:02:09.320Z,8.00
2018-11-04T04:05:14.670Z,7.57
2018-11-04T04:08:20.286Z,7.03
2018-11-04T04:11:25.739Z,6.87
2018-11-04T04:14:31.085Z,7.67
2018-11-04T04:17:36.435Z,6.77
2018-11-04T04:20:41.811Z,7.50
2018-11-04T04:23:47.312Z,7.30
2018-11-04T04:26:52.657Z,7.70
2018-11-04T04:29:58.669Z,7.60
2018-11-04T04:33:04.093Z,8.23
2018-11-04T04:36:09.441Z,7.90
2018-11-04T04:39:14.792Z,7.47
2018-11-04T04:42:20.222Z,7.50
2018-11-04T04:45:25.571Z,7.93
2018-11-04T04:48:31.282Z,8.13
2018-11-04T04:51:36.634Z,7.63
2018-11-04T04:54:44.124Z,8.17
2018-11-04T04:57:49.455Z,7.77
2018-11-04T05:00:55.714Z,8.30
2018-11-04T05:04:01.077Z,7.27
2018-11-04T05:07:06.998Z,7.03
2018-11-04T05:10:12.687Z,8.00
2018-11-04T05:13:18.110Z,7.67
2018-11-04T05:16:23.487Z,7.70
2018-11-04T05:19:28.898Z,7.77
2018-11-04T05:22:34.387Z,8.67
2018-11-04T05:25:39.759Z,6.90
2018-11-04T05:28:45.139Z,7.77
2018-11-04T05:31:50.690Z,7.63
2018-11-04T05:34:56.133Z,7.60
2018-11-04T05:38:01.591Z,7.73
2018-11-04T05:41:07.442Z,8.10
2018-11-04T05:44:12.798Z,7.97
2018-11-04T05:47:18.166Z,7.13
2018-11-04T05:50:24.212Z,8.00
2018-11-04T05:53:29.669Z,7.67
2018-11-04T05:56:35.187Z,7.90
2018-11-04T05:59:40.553Z,7.77
2018-11-04T06:02:47.059Z,8.67
2018-11-04T06:05:52.434Z,8.23
2018-11-04T06:08:57.798Z,7.77
2018-11-04T06:12:03.410Z,8.73
2018-11-04T06:15:09.551Z,8.50
2018-11-04T06:18:15.484Z,8.57
2018-11-04T06:21:20.976Z,9.17
2018-11-04T06:24:26.366Z,8.00
2018-11-04T06:27:31.734Z,8.13
2018-11-04T06:30:37.098Z,9.07
2018-11-04T06:33:42.985Z,9.20
2018-11-04T06:36:48.378Z,8.17
2018-11-04T06:39:53.748Z,9.70
2018-11-04T06:42:59.242Z,9.07
2018-11-04T06:46:04.614Z,9.23
2018-11-04T06:49:10.026Z,8.53
2018-11-04T06:52:15.472Z,8.53
2018-11-04T06:55:20.818Z,8.90
2018-11-04T06:58:26.335Z,9.27
2018-11-04T07:01:31.971Z,9.57
2018-11-04T07:04:37.348Z,9.47
2018-11-04T07:07:43.167Z,9.40
2018-11-04T07:10:48.509Z,9.33
2018-11-04T07:13:53.895Z,9.63
2018-11-04T07:16:59.238Z,9.33
2018-11-04T07:20:05.266Z,8.97
2018-11-04T07:23:10.874Z,9.60
2018-11-04T07:26:16.206Z,9.70
2018-11-04T07:29:21.566Z,9.10
2018-11-04T07:32:27.044Z,9.60
2018-11-04T07:35:34.499Z,9.37
2018-11-04T07:38:39.845Z,9.93
2018-11-04T07:41:45.282Z,10.47
2018-11-04T07:44:50.653Z,10.57
2018-11-04T07:47:56.015Z,9.67
2018-11-04T07:51:01.354Z,10.40
2018-11-04T07:54:07.310Z,10.13
2018-11-04T07:57:14.856Z,10.23
2018-11-04T08:00:20.239Z,10.23
2018-11-04T08:03:25.802Z,10.30
2018-11-04T08:06:31.329Z,10.43
2018-11-04T08:09:36.678Z,10.97
2018-11-04T08:12:42.126Z,11.23
2018-11-04T08:15:47.472Z,10.23
2018-11-04T08:18:52.834Z,11.17
2018-11-04T08:21:58.250Z,11.90
2018-11-04T08:25:03.610Z,11.83
2018-11-04T08:28:09.397Z,12.73
2018-11-04T08:31:14.830Z,12.53
2018-11-04T08:34:20.378Z,12.60
2018-11-04T08:37:26.336Z,13.73
2018-11-04T08:40:31.765Z,13.67
2018-11-04T08:43:37.373Z,14.03
2018-11-04T08:46:42.966Z,13.90
2018-11-04T08:49:48.367Z,14.37
2018-11-04T08:52:53.762Z,15.07
2018-11-04T08:55:59.113Z,17.20
2018-11-04T08:59:04.470Z,17.07
2018-11-04T09:02:09.925Z,17.13
2018-11-04T09:05:15.283Z,19.53
2018-11-04T09:08:21.000Z,18.80
2018-11-04T09:11:26.472Z,20.07
2018-11-04T09:14:31.830Z,20.47
2018-11-04T09:17:37.170Z,20.90
2018-11-04T09:20:42.692Z,19.93
2018-11-04T09:23:48.302Z,20.33
2018-11-04T09:26:55.854Z,22.13
2018-11-04T09:30:01.251Z,22.70
2018-11-04T09:33:07.170Z,22.07
2018-11-04T09:36:12.683Z,23.50
2018-11-04T09:39:18.203Z,23.23
2018-11-04T09:42:23.649Z,21.97
2018-11-04T09:45:29.046Z,22.53
2018-11-04T09:48:34.469Z,23.63
2018-11-04T09:51:40.259Z,23.83
2018-11-04T09:54:45.944Z,24.60
2018-11-04T09:57:51.329Z,22.67
2018-11-04T10:00:56.768Z,24.60
2018-11-04T10:04:02.162Z,23.27
2018-11-04T10:07:08.244Z,23.60
2018-11-04T10:10:15.310Z,22.43
2018-11-04T10:13:20.906Z,23.70
2018-11-04T10:16:27.281Z,23.50
2018-11-04T10:19:32.989Z,22.70
2018-11-04T10:22:38.546Z,23.03
2018-11-04T10:25:43.930Z,22.63
2018-11-04T10:28:49.298Z,22.67
2018-11-04T10:31:58.602Z,23.03
2018-11-04T10:35:04.015Z,23.30
2018-11-04T10:38:09.369Z,22.53
2018-11-04T10:41:15.004Z,22.47
2018-11-04T10:44:20.374Z,21.43
2018-11-04T10:47:26.097Z,22.40
2018-11-04T10:50:31.470Z,21.93
2018-11-04T10:53:37.749Z,23.13
2018-11-04T10:56:45.307Z,22.43
2018-11-04T10:59:51.048Z,21.97
2018-11-04T11:02:56.499Z,21.87
2018-11-04T11:06:02.037Z,24.00
2018-11-04T11:09:10.066Z,24.03
2018-11-04T11:12:17.273Z,23.47
2018-11-04T11:15:22.676Z,22.50
2018-11-04T11:18:28.418Z,23.63
2018-11-04T11:21:33.909Z,23.40
2018-11-04T11:24:39.349Z,21.00
2018-11-04T11:27:44.763Z,23.53
2018-11-04T11:30:50.534Z,22.57
2018-11-04T11:33:58.436Z,22.47
2018-11-04T11:37:06.162Z,22.37
2018-11-04T11:40:11.955Z,23.87
2018-11-04T11:43:17.461Z,23.40
2018-11-04T11:46:22.894Z,22.77
2018-11-04T11:49:28.296Z,23.40
2018-11-04T11:52:33.942Z,22.63
2018-11-04T11:55:41.805Z,22.17
2018-11-04T11:58:47.267Z,22.63
2018-11-04T12:01:52.746Z,23.33
2018-11-04T12:04:58.137Z,23.57
2018-11-04T12:08:03.557Z,22.43
2018-11-04T12:11:08.983Z,23.40
2018-11-04T12:14:14.381Z,22.17
2018-11-04T12:17:19.818Z,22.07
2018-11-04T12:20:25.770Z,22.70
2018-11-04T12:23:31.623Z,21.50
2018-11-04T12:26:37.222Z,23.20
2018-11-04T12:29:43.143Z,22.20
2018-11-04T12:32:48.569Z,22.23
2018-11-04T12:35:54.524Z,24.03
2018-11-04T12:38:59.930Z,23.20
2018-11-04T12:42:05.671Z,22.67
2018-11-04T12:45:12.450Z,21.77
2018-11-04T12:48:18.297Z,22.80
2018-11-04T12:51:23.717Z,21.90
2018-11-04T12:54:29.110Z,22.00
2018-11-04T12:57:35.052Z,22.53
2018-11-04T13:00:40.488Z,23.20
2018-11-04T13:03:45.937Z,23.63
2018-11-04T13:06:51.387Z,22.13
2018-11-04T13:09:56.885Z,22.33
2018-11-04T13:13:02.515Z,22.27
2018-11-04T13:16:08.078Z,23.20
2018-11-04T13:19:13.485Z,24.07
2018-11-04T13:22:18.937Z,21.53
2018-11-04T13:25:24.408Z,22.97
2018-11-04T13:28:30.460Z,23.33
2018-11-04T13:31:36.146Z,22.70
2018-11-04T13:34:41.880Z,22.90
2018-11-04T13:37:49.710Z,23.23
2018-11-04T13:40:55.583Z,22.17
2018-11-04T13:44:01.019Z,22.90
2018-11-04T13:47:06.539Z,23.53
2018-11-04T13:50:14.505Z,23.77
2018-11-04T13:53:19.925Z,22.40
2018-11-04T13:56:25.400Z,24.03
2018-11-04T13:59:30.826Z,22.43
2018-11-04T14:02:36.780Z,22.93
2018-11-04T14:05:42.739Z,22.60
2018-11-04T14:08:48.884Z,22.47
2018-11-04T14:11:54.321Z,24.73
2018-11-04T14:14:59.756Z,24.80
2018-11-04T14:18:05.707Z,23.03
2018-11-04T14:21:11.110Z,24.97
2018-11-04T14:24:16.509Z,24.27
2018-11-04T14:27:21.970Z,23.10
2018-11-04T14:30:27.338Z,21.73
2018-11-04T14:33:32.781Z,23.37
2018-11-04T14:36:38.746Z,22.30
2018-11-04T14:39:44.313Z,24.10
2018-11-04T14:42:49.744Z,24.87
2018-11-04T14:45:55.354Z,23.60
2018-11-04T14:49:01.527Z,22.00
2018-11-04T14:52:06.937Z,23.00
2018-11-04T14:55:12.810Z,22.40
2018-11-04T14:58:18.246Z,23.83
2018-11-04T15:01:23.796Z,24.43
2018-11-04T15:04:29.333Z,24.43
2018-11-04T15:07:34.854Z,23.07
2018-11-04T15:10:40.318Z,23.27
2018-11-04T15:13:45.723Z,25.57
2018-11-04T15:16:51.178Z,27.30
2018-11-04T15:19:56.741Z,25.07
2018-11-04T15:23:02.421Z,24.93
2018-11-04T15:26:08.900Z,24.93
2018-11-04T15:29:14.288Z,25.40
2018-11-04T15:32:19.722Z,25.13
2018-11-04T15:35:25.641Z,25.73
2018-11-04T15:38:31.063Z,24.93
2018-11-04T15:41:36.491Z,25.27
2018-11-04T15:44:41.892Z,24.90
2018-11-04T15:47:47.363Z,25.20
2018-11-04T15:50:53.114Z,24.33
2018-11-04T15:53:58.575Z,25.67
2018-11-04T15:57:09.323Z,23.77
2018-11-04T16:00:15.710Z,24.43
2018-11-04T16:03:21.150Z,23.47
2018-11-04T16:06:26.574Z,23.97
2018-11-04T16:09:31.989Z,24.13
2018-11-04T16:12:48.480Z,23.00
2018-11-04T16:16:03.800Z,23.27
2018-11-04T16:19:23.053Z,22.77
2018-11-04T16:22:28.459Z,22.60
2018-11-04T16:25:33.943Z,24.17
2018-11-04T16:28:39.556Z,23.47
2018-11-04T16:31:45.036Z,21.27
2018-11-04T16:34:50.446Z,22.77
2018-11-04T16:37:55.881Z,22.57
2018-11-04T16:41:01.494Z,23.53
2018-11-04T16:44:07.706Z,23.37
2018-11-04T16:47:13.146Z,23.07
2018-11-04T16:50:18.582Z,23.13
2018-11-04T16:53:24.095Z,24.23
2018-11-04T16:56:31.304Z,23.87
2018-11-04T16:59:36.774Z,25.30
2018-11-04T17:02:43.969Z,25.23
2018-11-04T17:05:51.564Z,25.43
2018-11-04T17:08:57.160Z,26.43
2018-11-04T17:12:02.622Z,25.27
2018-11-04T17:15:11.422Z,26.57
2018-11-04T17:18:16.938Z,27.43
2018-11-04T17:21:22.898Z,26.07
2018-11-04T17:24:30.062Z,28.07
2018-11-04T17:27:35.527Z,29.27
2018-11-04T17:30:40.936Z,28.43
2018-11-04T17:33:46.422Z,29.23
2018-11-04T17:36:51.826Z,30.53
2018-11-04T17:39:57.540Z,27.57
2018-11-04T17:43:03.038Z,27.47
2018-11-04T17:46:08.586Z,29.17
2018-11-04T17:49:13.999Z,29.20
2018-11-04T17:52:19.475Z,29.13
2018-11-04T17:55:24.887Z,28.23
2018-11-04T17:58:30.272Z,28.23
2018-11-04T18:01:35.750Z,29.03
2018-11-04T18:04:41.156Z,28.13
2018-11-04T18:07:47.267Z,28.23
2018-11-04T18:10:52.676Z,28.40
2018-11-04T18:13:58.172Z,28.40
2018-11-04T18:17:03.694Z,30.20
2018-11-04T18:20:10.782Z,29.93
2018-11-04T18:23:16.214Z,28.57
2018-11-04T18:26:21.764Z,29.57
2018-11-04T18:29:27.330Z,29.80
2018-11-04T18:32:32.794Z,31.77
2018-11-04T18:35:38.286Z,30.77
2018-11-04T18:38:43.666Z,31.53
2018-11-04T18:41:49.139Z,28.63
2018-11-04T18:44:54.611Z,29.70
2018-11-04T18:48:00.513Z,29.97
2018-11-04T18:51:06.542Z,29.80
2018-11-04T18:54:13.227Z,28.90
2018-11-04T18:57:18.679Z,28.77
2018-11-04T19:00:24.210Z,29.93
2018-11-04T19:03:31.785Z,29.40
2018-11-04T19:06:37.287Z,30.57
2018-11-04T19:09:43.004Z,28.23
2018-11-04T19:12:48.505Z,27.87
2018-11-04T19:15:53.955Z,30.97
2018-11-04T19:18:59.456Z,28.93
2018-11-04T19:22:05.314Z,28.13
2018-11-04T19:25:12.398Z,27.77
2018-11-04T19:28:17.910Z,29.33
2018-11-04T19:31:24.135Z,29.63
2018-11-04T19:34:29.597Z,31.63
2018-11-04T19:37:35.037Z,32.00
2018-11-04T19:40:40.508Z,30.13
2018-11-04T19:43:46.037Z,32.03
2018-11-04T19:46:51.689Z,31.37
2018-11-04T19:49:57.065Z,32.00
2018-11-04T19:53:03.050Z,30.60
2018-11-04T19:56:08.894Z,30.47
2018-11-04T19:59:14.318Z,30.67
2018-11-04T20:02:20.034Z,33.83
2018-11-04T20:05:25.564Z,31.40
2018-11-04T20:08:31.418Z,34.30
2018-11-04T20:11:36.919Z,31.63
2018-11-04T20:14:42.346Z,34.33
2018-11-04T20:17:48.659Z,31.27
2018-11-04T20:20:54.499Z,33.20
2018-11-04T20:24:02.898Z,35.33
2018-11-04T20:27:08.322Z,32.03
2018-11-04T20:30:14.365Z,33.37
2018-11-04T20:33:19.829Z,35.30
2018-11-04T20:36:25.949Z,33.53
2018-11-04T20:39:36.606Z,31.50
2018-11-04T20:42:42.131Z,32.97
2018-11-04T20:45:47.511Z,33.43
2018-11-04T20:48:58.067Z,33.63
2018-11-04T20:52:03.603Z,35.67
2018-11-04T20:55:09.206Z,32.23
2018-11-04T20:58:14.737Z,34.57
2018-11-04T21:01:20.925Z,33.93
2018-11-04T21:04:26.313Z,34.80
2018-11-04T21:07:31.714Z,33.27
2018-11-04T21:10:37.097Z,31.50
2018-11-04T21:13:42.529Z,35.03
2018-11-04T21:16:48.125Z,35.00
2018-11-04T21:19:53.549Z,34.67
2018-11-04T21:22:58.969Z,34.17
2018-11-04T21:26:04.431Z,34.43
2018-11-04T21:29:10.043Z,34.20
2018-11-04T21:32:15.549Z,36.33
2018-11-04T21:35:20.928Z,35.50
2018-11-04T21:38:26.402Z,36.10
2018-11-04T21:41:31.875Z,37.10
2018-11-04T21:44:37.358Z,34.67
2018-11-04T21:47:43.304Z,35.30
2018-11-04T21:50:48.816Z,35.50
2018-11-04T21:53:54.482Z,36.70
2018-11-04T21:56:59.903Z,35.40
2018-11-04T22:00:08.306Z,37.50
2018-11-04T22:03:13.991Z,36.60
2018-11-04T22:06:19.462Z,36.23
2018-11-04T22:09:24.871Z,36.50
2018-11-04T22:12:30.909Z,38.33
2018-11-04T22:15:36.818Z,37.60
2018-11-04T22:18:42.253Z,36.93
2018-11-04T22:21:47.865Z,39.27
2018-11-04T22:24:53.285Z,36.83
2018-11-04T22:27:58.714Z,38.77
2018-11-04T22:31:04.203Z,38.27
2018-11-04T22:34:10.139Z,37.90
2018-11-04T22:37:15.667Z,35.37
2018-11-04T22:40:21.078Z,38.73
2018-11-04T22:43:26.598Z,36.57
2018-11-04T22:46:32.008Z,36.37
2018-11-04T22:49:37.422Z,37.83
2018-11-04T22:52:43.318Z,34.27
2018-11-04T22:55:48.746Z,37.30
2018-11-04T22:58:54.370Z,35.77
2018-11-04T23:01:59.943Z,37.63
2018-11-04T23:05:11.647Z,36.67
2018-11-04T23:08:17.077Z,35.97
2018-11-04T23:11:22.668Z,37.07
2018-11-04T23:14:28.066Z,38.30
2018-11-04T23:17:33.437Z,35.00
2018-11-04T23:20:38.845Z,35.97
2018-11-04T23:23:44.286Z,36.67
2018-11-04T23:26:49.677Z,37.67
2018-11-04T23:29:55.247Z,37.97
2018-11-04T23:33:00.714Z,38.50
2018-11-04T23:36:06.471Z,37.47
2018-11-04T23:39:11.930Z,36.43
2018-11-04T23:42:17.297Z,36.63
2018-11-04T23:45:22.694Z,35.03
2018-11-04T23:48:28.137Z,36.43
2018-11-04T23:51:33.850Z,35.53
2018-11-04T23:54:39.246Z,34.27
2018-11-04T23:57:44.655Z,33.63
